Time;durP1;ratioP1;P1;durP2;ratioP2;P2;SDS_P1;SDS_P2;PMS_P1;PMS_P2;Temp;Humidity;BMP_temperature;BMP_pressure;BME280_temperature;BME280_humidity;BME280_pressure;Samples;Min_cycle;Max_cycle;Signal;HPM_P1;HPM_P2
2022/07/14 15:27:17;;;;;;;2.05;0.65;;;22.10;68.70;;;;;;5052501;28;21501;-75
2022/07/14 15:29:45;;;;;;;0.70;0.70;;;22.00;70.40;;;;;;5041755;28;20206;-74
2022/07/14 15:32:13;;;;;;;0.60;0.60;;;22.10;70.80;;;;;;5051284;28;22349;-73
2022/07/14 15:34:41;;;;;;;1.00;0.50;;;22.20;70.80;;;;;;5049639;28;20653;-76
2022/07/14 15:37:10;;;;;;;0.75;0.60;;;22.30;70.70;;;;;;5050925;28;20276;-76
2022/07/14 15:42:24;;;;;;;0.90;0.73;;;22.50;70.00;;;;;;5050324;28;20216;-75
2022/07/14 15:44:51;;;;;;;1.15;0.85;;;22.60;70.10;;;;;;5066667;28;20580;-73
2022/07/14 15:47:19;;;;;;;1.02;0.90;;;22.70;69.60;;;;;;5051590;28;20197;-72
2022/07/14 15:49:46;;;;;;;1.88;0.90;;;22.70;69.20;;;;;;5050921;28;20244;-72
2022/07/14 15:52:13;;;;;;;2.03;0.90;;;22.80;69.00;;;;;;5064926;28;20208;-73
2022/07/14 15:54:41;;;;;;;1.10;1.00;;;22.80;69.10;;;;;;5048955;28;20201;-74
2022/07/14 15:57:08;;;;;;;0.88;0.88;;;22.90;69.30;;;;;;5065728;28;20228;-74
2022/07/14 15:59:36;;;;;;;1.45;0.60;;;23.00;69.50;;;;;;5050587;28;20714;-74
2022/07/14 16:02:03;;;;;;;1.13;1.02;;;23.10;69.50;;;;;;5051043;28;20221;-74
2022/07/14 16:04:30;;;;;;;1.05;0.60;;;23.10;69.50;;;;;;5051358;28;20259;-74
2022/07/14 16:06:58;;;;;;;0.90;0.90;;;23.10;69.40;;;;;;5050974;28;20304;-73
2022/07/14 16:09:25;;;;;;;1.50;1.00;;;23.10;69.40;;;;;;5059160;28;20292;-74
2022/07/14 16:11:52;;;;;;;0.68;0.68;;;23.10;69.20;;;;;;5049222;28;20227;-73
2022/07/14 16:14:19;;;;;;;2.30;1.10;;;23.10;69.50;;;;;;5065121;28;20588;-74
2022/07/14 16:16:47;;;;;;;0.98;0.95;;;23.10;69.20;;;;;;5050201;28;20276;-74
2022/07/14 16:19:15;;;;;;;1.08;0.88;;;23.10;69.40;;;;;;5050851;28;20263;-74
2022/07/14 16:21:42;;;;;;;1.45;0.98;;;23.10;69.20;;;;;;5065622;28;20262;-74
2022/07/14 16:24:09;;;;;;;0.60;0.60;;;23.00;68.90;;;;;;5049081;28;20248;-74
2022/07/14 16:26:36;;;;;;;1.65;0.60;;;23.00;69.00;;;;;;5049369;28;20320;-74
2022/07/14 16:29:04;;;;;;;0.80;0.68;;;23.00;69.10;;;;;;5049897;28;20221;-73
2022/07/14 16:31:31;;;;;;;0.70;0.68;;;23.00;68.70;;;;;;5049686;28;20198;-74
2022/07/14 16:33:59;;;;;;;0.88;0.75;;;22.90;67.90;;;;;;5042606;28;20208;-74
2022/07/14 16:36:26;;;;;;;1.55;1.02;;;22.90;67.60;;;;;;5048899;28;20193;-73
2022/07/14 16:38:55;;;;;;;0.70;0.70;;;22.80;67.00;;;;;;5037545;28;20700;-74
2022/07/14 16:41:22;;;;;;;0.80;0.73;;;22.80;67.10;;;;;;5036421;28;20628;-73
2022/07/14 16:43:49;;;;;;;2.90;1.10;;;22.70;67.20;;;;;;5036682;28;20208;-73
2022/07/14 16:46:18;;;;;;;0.80;0.80;;;22.70;67.40;;;;;;5037003;28;20877;-73
2022/07/14 16:48:45;;;;;;;0.77;0.77;;;22.60;67.40;;;;;;5037781;28;20197;-74
2022/07/14 16:51:14;;;;;;;0.98;0.80;;;22.60;67.50;;;;;;5037121;28;20637;-73
2022/07/14 16:53:42;;;;;;;1.02;0.93;;;22.60;67.80;;;;;;5044040;28;20198;-74
2022/07/14 16:56:09;;;;;;;0.70;0.60;;;22.60;67.80;;;;;;5035017;28;20193;-74
2022/07/14 16:58:36;;;;;;;2.17;0.75;;;22.50;68.00;;;;;;5037204;28;20217;-73
2022/07/14 17:01:03;;;;;;;0.63;0.50;;;22.60;68.50;;;;;;5052134;28;20458;-73
2022/07/14 17:03:32;;;;;;;0.65;0.65;;;22.50;68.70;;;;;;5051657;28;20210;-74
2022/07/14 17:08:45;;;;;;;0.70;0.70;;;22.60;69.30;;;;;;5028947;28;20894;-74
2022/07/14 17:11:12;;;;;;;0.60;0.60;;;22.50;69.40;;;;;;5035442;28;20197;-74
2022/07/14 17:13:40;;;;;;;0.65;0.65;;;22.60;69.50;;;;;;5036793;28;20206;-73
2022/07/14 17:16:08;;;;;;;0.57;0.57;;;22.50;69.50;;;;;;5050675;28;22099;-73
2022/07/14 17:18:36;;;;;;;0.60;0.60;;;22.50;69.10;;;;;;5037402;28;20946;-74
2022/07/14 17:21:04;;;;;;;0.70;0.70;;;22.50;69.10;;;;;;5051271;28;20302;-73
2022/07/14 17:23:31;;;;;;;1.20;0.82;;;22.50;69.20;;;;;;5035676;28;20677;-74
2022/07/14 17:26:00;;;;;;;0.82;0.82;;;22.50;69.00;;;;;;5034706;28;20277;-73
2022/07/14 17:28:28;;;;;;;1.15;1.05;;;22.40;68.50;;;;;;5035686;28;20338;-73
2022/07/14 17:30:55;;;;;;;1.38;0.90;;;22.40;68.70;;;;;;5035364;28;20198;-73
2022/07/14 17:33:23;;;;;;;2.92;1.00;;;22.30;68.60;;;;;;5035921;28;20200;-72
2022/07/14 17:35:51;;;;;;;1.80;0.98;;;22.30;68.40;;;;;;5036508;28;20311;-71
2022/07/14 17:38:18;;;;;;;2.13;0.98;;;22.30;68.50;;;;;;5035668;28;20285;-72
2022/07/14 17:40:45;;;;;;;0.77;0.77;;;22.20;68.50;;;;;;5035695;28;20198;-72
2022/07/14 17:43:13;;;;;;;0.70;0.70;;;22.20;68.60;;;;;;5033800;28;20275;-72
2022/07/14 17:45:40;;;;;;;0.75;0.75;;;22.20;68.90;;;;;;5035135;28;20297;-73
2022/07/14 17:48:07;;;;;;;1.70;1.00;;;22.20;69.00;;;;;;5050331;28;20205;-73
2022/07/14 17:50:35;;;;;;;1.27;0.95;;;22.20;69.00;;;;;;5034324;28;20224;-72
2022/07/14 17:53:02;;;;;;;1.20;1.00;;;22.20;69.00;;;;;;5043750;28;20242;-72
2022/07/14 17:55:29;;;;;;;0.98;0.85;;;22.10;69.20;;;;;;5036042;28;20255;-72
2022/07/14 17:57:56;;;;;;;3.15;1.20;;;22.10;69.40;;;;;;5033734;28;20630;-72
2022/07/14 18:00:25;;;;;;;1.00;0.80;;;22.00;69.40;;;;;;5034574;28;20279;-72
2022/07/14 18:02:53;;;;;;;1.05;0.77;;;22.00;69.50;;;;;;5035166;28;20669;-72
2022/07/14 18:05:20;;;;;;;0.60;0.60;;;22.00;69.60;;;;;;5034335;28;20198;-72
2022/07/14 18:07:48;;;;;;;0.90;0.90;;;22.00;69.70;;;;;;5035855;28;20244;-73
2022/07/14 18:10:15;;;;;;;1.17;1.05;;;22.00;69.80;;;;;;5035185;28;20186;-72
2022/07/14 18:12:42;;;;;;;0.80;0.80;;;22.00;69.80;;;;;;5034359;28;20198;-73
2022/07/14 18:15:11;;;;;;;1.67;1.02;;;21.90;69.80;;;;;;5038222;28;20677;-73
2022/07/14 18:17:40;;;;;;;1.40;1.00;;;21.90;69.90;;;;;;5033916;28;20273;-73
2022/07/14 18:20:08;;;;;;;0.82;0.82;;;21.80;70.00;;;;;;5035578;28;21197;-73
2022/07/14 18:22:37;;;;;;;0.70;0.70;;;21.80;70.30;;;;;;5034020;28;20194;-73
2022/07/14 18:25:06;;;;;;;0.90;0.90;;;21.80;70.50;;;;;;5041943;28;20234;-72
2022/07/14 18:27:34;;;;;;;0.73;0.73;;;21.80;70.70;;;;;;5033822;28;20489;-72
2022/07/14 18:30:01;;;;;;;0.80;0.70;;;21.80;70.70;;;;;;5033296;28;20656;-72
2022/07/14 18:32:28;;;;;;;0.98;0.98;;;21.80;70.90;;;;;;5042724;28;20201;-72
2022/07/14 18:34:57;;;;;;;0.93;0.70;;;21.80;70.90;;;;;;5035087;28;20241;-72
2022/07/14 18:37:24;;;;;;;0.70;0.70;;;21.70;70.90;;;;;;5033313;28;20194;-71
2022/07/14 18:39:52;;;;;;;0.88;0.88;;;21.80;71.20;;;;;;5049674;28;20214;-73
2022/07/14 18:42:20;;;;;;;0.88;0.88;;;21.70;71.20;;;;;;5033356;28;20193;-73
2022/07/14 18:47:31;;;;;;;1.00;1.00;;;21.80;71.50;;;;;;5049764;28;20217;-72
2022/07/14 18:50:00;;;;;;;1.30;1.10;;;21.70;71.60;;;;;;5035551;28;20225;-72
2022/07/14 18:52:27;;;;;;;1.05;1.02;;;21.70;71.70;;;;;;5033846;28;20622;-73
2022/07/14 18:54:55;;;;;;;1.42;1.30;;;21.70;71.80;;;;;;5035008;28;20281;-73
2022/07/14 18:57:22;;;;;;;1.02;0.93;;;21.70;72.20;;;;;;5040032;28;20186;-74
2022/07/14 18:59:50;;;;;;;1.10;0.93;;;21.60;72.10;;;;;;5047290;28;20209;-72
2022/07/14 19:02:21;;;;;;;1.67;0.90;;;21.60;72.80;;;;;;5032970;28;20202;-72
2022/07/14 19:04:48;;;;;;;1.75;1.23;;;21.60;72.20;;;;;;5035558;28;20776;-72
2022/07/14 19:07:16;;;;;;;3.05;1.17;;;21.60;72.60;;;;;;5033900;28;21239;-72
2022/07/14 19:09:43;;;;;;;1.23;1.13;;;21.60;72.70;;;;;;5035068;28;20205;-73
2022/07/14 19:12:10;;;;;;;0.95;0.95;;;21.50;72.60;;;;;;5034091;28;20221;-72
2022/07/14 19:14:37;;;;;;;0.90;0.90;;;21.60;72.80;;;;;;5033817;28;20305;-72
2022/07/14 19:17:05;;;;;;;1.30;1.20;;;21.60;72.90;;;;;;5049052;28;20525;-72
2022/07/14 19:19:32;;;;;;;1.80;1.10;;;21.60;72.90;;;;;;5034612;28;20190;-72
2022/07/14 19:21:59;;;;;;;1.10;1.00;;;21.60;73.00;;;;;;5048824;28;20265;-72
2022/07/14 19:24:29;;;;;;;1.10;1.00;;;21.50;73.00;;;;;;5034136;28;20779;-72
2022/07/14 19:26:57;;;;;;;0.90;0.90;;;21.60;73.30;;;;;;5033133;28;20297;-73
2022/07/14 19:29:24;;;;;;;1.15;1.00;;;21.50;73.30;;;;;;5031979;28;20210;-72
2022/07/14 19:31:51;;;;;;;1.40;1.05;;;21.50;73.60;;;;;;5034237;28;20206;-72
2022/07/14 19:34:18;;;;;;;1.88;1.33;;;21.50;73.70;;;;;;5034564;28;20654;-72
2022/07/14 19:36:46;;;;;;;1.20;1.15;;;21.50;73.80;;;;;;5033809;28;20197;-72
2022/07/14 19:39:13;;;;;;;1.10;1.10;;;21.50;73.90;;;;;;5034633;28;20236;-72
2022/07/14 19:41:42;;;;;;;1.17;1.13;;;21.50;74.00;;;;;;5034859;28;20208;-72
2022/07/14 19:44:09;;;;;;;3.67;1.60;;;21.50;74.00;;;;;;5033716;28;20225;-72
2022/07/14 19:46:36;;;;;;;1.40;1.30;;;21.50;74.10;;;;;;5033219;28;20308;-73
2022/07/14 19:49:04;;;;;;;1.75;1.08;;;21.50;74.20;;;;;;5033878;28;20539;-73
2022/07/14 19:51:31;;;;;;;1.10;1.00;;;21.40;74.30;;;;;;5034775;28;20190;-73
2022/07/14 19:54:00;;;;;;;1.60;1.25;;;21.40;74.40;;;;;;5043157;28;20202;-72
2022/07/14 19:56:27;;;;;;;1.75;1.02;;;21.40;74.60;;;;;;5033960;28;20365;-72
2022/07/14 19:58:56;;;;;;;1.35;1.25;;;21.40;75.50;;;;;;5031756;28;20704;-72
2022/07/14 20:01:23;;;;;;;2.15;1.70;;;21.30;74.80;;;;;;5033411;28;20653;-72
2022/07/14 20:03:50;;;;;;;1.20;1.17;;;21.30;75.00;;;;;;5033339;28;20682;-72
2022/07/14 20:06:17;;;;;;;2.85;1.48;;;21.30;75.10;;;;;;5033556;28;20613;-72
2022/07/14 20:08:45;;;;;;;0.95;0.90;;;21.30;75.30;;;;;;5033473;28;20206;-73
2022/07/14 20:11:12;;;;;;;1.60;1.50;;;21.20;75.40;;;;;;5032725;28;20276;-73
2022/07/14 20:13:39;;;;;;;1.00;1.00;;;21.20;75.50;;;;;;5036111;28;20201;-72
2022/07/14 20:16:09;;;;;;;1.63;1.20;;;21.20;75.60;;;;;;5038270;28;20197;-73
2022/07/14 20:18:36;;;;;;;1.30;1.20;;;21.20;75.70;;;;;;5037170;28;20568;-73
2022/07/14 20:21:03;;;;;;;1.30;1.20;;;21.20;76.00;;;;;;5036611;28;20717;-72
2022/07/14 20:23:30;;;;;;;1.55;1.25;;;21.10;76.10;;;;;;5037209;28;20671;-73
2022/07/14 20:25:57;;;;;;;1.92;1.23;;;21.10;76.10;;;;;;5037379;28;20275;-72
2022/07/14 20:33:55;;;;;;;1.90;1.27;;;21.00;76.80;;;;;;5037519;28;20661;-73
2022/07/14 20:36:23;;;;;;;1.17;0.95;;;21.00;77.70;;;;;;5053332;28;20205;-73
2022/07/14 20:38:50;;;;;;;1.00;1.00;;;21.00;77.10;;;;;;5036158;28;20590;-73
2022/07/14 20:41:17;;;;;;;1.45;0.90;;;21.00;77.20;;;;;;5037726;28;20209;-73
2022/07/14 20:43:44;;;;;;;3.88;1.27;;;21.00;77.40;;;;;;5037768;28;20201;-73
2022/07/14 20:48:57;;;;;;;1.42;0.90;;;21.00;77.60;;;;;;5051947;28;20655;-74
2022/07/14 20:51:25;;;;;;;1.50;1.10;;;21.00;77.70;;;;;;5037437;28;20198;-73
2022/07/14 20:53:52;;;;;;;1.30;1.20;;;21.00;77.90;;;;;;5037473;28;20229;-73
2022/07/14 20:56:19;;;;;;;1.30;1.20;;;20.90;78.10;;;;;;5036061;28;20256;-73
2022/07/14 20:58:46;;;;;;;1.15;1.10;;;20.90;78.20;;;;;;5035369;28;20194;-73
2022/07/14 21:01:15;;;;;;;0.80;0.80;;;20.90;78.30;;;;;;5036537;28;20202;-73
2022/07/14 21:03:42;;;;;;;1.20;1.10;;;20.90;78.50;;;;;;5036351;28;20208;-73
2022/07/14 21:06:10;;;;;;;1.58;0.95;;;20.90;78.60;;;;;;5036319;28;20194;-73
2022/07/14 21:08:37;;;;;;;1.30;1.20;;;20.90;78.80;;;;;;5037262;28;20434;-72
2022/07/14 21:11:04;;;;;;;1.30;1.20;;;20.90;78.80;;;;;;5052354;28;20208;-73
2022/07/14 21:13:31;;;;;;;1.40;1.27;;;20.90;78.90;;;;;;5035656;28;20197;-73
2022/07/14 21:15:58;;;;;;;1.13;1.00;;;20.90;79.00;;;;;;5036107;28;20255;-74
2022/07/14 21:18:27;;;;;;;3.33;1.10;;;20.80;78.90;;;;;;5043012;28;20221;-74
2022/07/14 21:20:54;;;;;;;1.27;1.08;;;20.90;79.20;;;;;;5034880;28;20690;-73
2022/07/14 21:23:21;;;;;;;0.90;0.90;;;20.80;79.20;;;;;;5035496;28;20213;-73
2022/07/14 21:25:48;;;;;;;1.10;1.10;;;20.80;79.20;;;;;;5037543;28;20657;-74
2022/07/14 21:28:15;;;;;;;1.35;1.00;;;20.80;79.30;;;;;;5049157;28;20253;-74
2022/07/14 21:30:42;;;;;;;2.40;0.80;;;20.80;79.40;;;;;;5035054;28;20518;-73
2022/07/14 21:33:09;;;;;;;1.23;1.10;;;20.80;79.50;;;;;;5035898;28;20202;-74
2022/07/14 21:35:38;;;;;;;5.28;1.30;;;20.70;79.50;;;;;;5036040;28;20206;-74
2022/07/14 21:38:05;;;;;;;1.20;0.90;;;20.70;79.70;;;;;;5035174;28;20230;-73
2022/07/14 21:40:32;;;;;;;1.60;1.00;;;20.70;79.80;;;;;;5027723;28;20575;-71
2022/07/14 21:42:59;;;;;;;0.80;0.80;;;20.70;79.90;;;;;;5033906;28;20607;-74
2022/07/14 21:45:27;;;;;;;0.80;0.80;;;20.70;80.10;;;;;;5035883;28;20205;-74
2022/07/14 21:47:54;;;;;;;1.13;0.85;;;20.60;80.20;;;;;;5033898;28;20217;-73
2022/07/14 21:50:21;;;;;;;0.85;0.85;;;20.60;81.00;;;;;;5035228;28;20199;-73
2022/07/14 21:52:49;;;;;;;2.03;1.05;;;20.60;80.40;;;;;;5034900;28;20407;-73
2022/07/14 21:55:19;;;;;;;1.00;1.00;;;20.60;80.50;;;;;;5036447;28;20222;-73
2022/07/14 21:57:46;;;;;;;0.98;0.80;;;20.60;80.60;;;;;;5034403;28;20202;-74
2022/07/14 22:00:14;;;;;;;0.85;0.85;;;20.60;80.60;;;;;;5035508;28;20573;-74
2022/07/14 22:02:41;;;;;;;0.70;0.70;;;20.60;80.70;;;;;;5035593;28;20243;-74
2022/07/14 22:05:09;;;;;;;0.90;0.90;;;20.60;80.60;;;;;;5035646;28;20221;-74
2022/07/14 22:07:36;;;;;;;0.80;0.80;;;20.60;80.60;;;;;;5035540;28;20205;-73
2022/07/14 22:10:05;;;;;;;2.00;0.70;;;20.60;80.60;;;;;;5035678;28;20200;-73
2022/07/14 22:12:32;;;;;;;3.45;1.08;;;20.60;80.70;;;;;;5034477;28;20197;-74
2022/07/14 22:14:59;;;;;;;0.90;0.90;;;20.60;80.80;;;;;;5050453;28;20394;-73
2022/07/14 22:17:28;;;;;;;1.10;1.00;;;20.50;80.90;;;;;;5035271;28;20669;-74
2022/07/14 22:19:58;;;;;;;1.45;0.90;;;20.50;81.00;;;;;;5035265;28;20200;-73
2022/07/14 22:22:25;;;;;;;1.20;0.88;;;20.50;82.00;;;;;;5034801;28;20273;-74
2022/07/14 22:24:53;;;;;;;0.90;0.90;;;20.40;81.40;;;;;;5035314;28;20199;-73
2022/07/14 22:27:22;;;;;;;1.08;1.08;;;20.40;81.50;;;;;;5034552;28;20210;-72
2022/07/14 22:29:51;;;;;;;1.52;0.90;;;20.40;81.60;;;;;;5034122;28;20281;-72
2022/07/14 22:32:19;;;;;;;0.70;0.70;;;20.40;81.70;;;;;;5035440;28;20197;-73
2022/07/14 22:34:46;;;;;;;1.58;1.00;;;20.40;81.70;;;;;;5034309;28;20236;-73
2022/07/14 22:37:14;;;;;;;0.80;0.80;;;20.40;81.80;;;;;;5035054;28;20213;-73
2022/07/14 22:39:41;;;;;;;1.25;1.02;;;20.30;81.90;;;;;;5033472;28;20283;-72
2022/07/14 22:42:08;;;;;;;0.90;0.90;;;20.30;81.90;;;;;;5035284;28;20198;-73
2022/07/14 22:44:37;;;;;;;0.80;0.80;;;20.30;81.90;;;;;;5041050;28;20205;-72
2022/07/14 22:47:04;;;;;;;0.80;0.80;;;20.30;81.90;;;;;;5034797;28;20190;-71
2022/07/14 22:49:32;;;;;;;0.90;0.90;;;20.30;82.00;;;;;;5034647;28;20193;-73
2022/07/14 22:51:59;;;;;;;0.80;0.80;;;20.30;82.10;;;;;;5035179;28;20194;-71
2022/07/14 22:54:27;;;;;;;0.70;0.70;;;20.30;82.20;;;;;;5033861;28;20206;-73
2022/07/14 22:56:55;;;;;;;0.93;0.82;;;20.30;82.40;;;;;;5033642;28;20931;-73
2022/07/14 22:59:23;;;;;;;0.82;0.82;;;20.30;83.20;;;;;;5032930;28;20669;-73
2022/07/14 23:01:52;;;;;;;0.95;0.60;;;20.30;82.50;;;;;;5034542;28;20267;-73
2022/07/14 23:04:19;;;;;;;0.80;0.80;;;20.20;82.50;;;;;;5034651;28;20205;-73
2022/07/14 23:06:47;;;;;;;1.73;0.98;;;20.20;82.60;;;;;;5033949;28;21066;-73
2022/07/14 23:09:14;;;;;;;0.80;0.80;;;20.20;82.70;;;;;;5034662;28;20674;-73
2022/07/14 23:14:26;;;;;;;1.00;0.70;;;20.20;82.70;;;;;;5047986;28;20196;-72
2022/07/14 23:16:54;;;;;;;0.50;0.50;;;20.20;82.70;;;;;;5035747;28;20190;-71
2022/07/14 23:19:21;;;;;;;1.17;0.77;;;20.10;82.60;;;;;;5034199;28;20202;-72
2022/07/14 23:21:48;;;;;;;0.77;0.77;;;20.10;82.70;;;;;;5034126;28;20205;-72
2022/07/14 23:24:16;;;;;;;0.60;0.60;;;20.10;82.80;;;;;;5034559;28;20596;-72
2022/07/14 23:26:43;;;;;;;0.70;0.70;;;20.10;82.80;;;;;;5034086;28;20871;-72
2022/07/14 23:29:10;;;;;;;0.70;0.70;;;20.10;82.80;;;;;;5048180;28;20355;-73
2022/07/14 23:31:37;;;;;;;0.93;0.80;;;20.00;82.80;;;;;;5034477;28;20204;-72
2022/07/14 23:34:06;;;;;;;0.82;0.82;;;20.10;83.00;;;;;;5032662;28;20211;-71
2022/07/14 23:36:33;;;;;;;0.77;0.77;;;20.00;83.00;;;;;;5033679;28;20292;-72
2022/07/14 23:39:00;;;;;;;0.60;0.60;;;20.00;83.10;;;;;;5034827;28;20190;-71
2022/07/14 23:41:27;;;;;;;1.20;0.70;;;20.00;83.30;;;;;;5033737;28;20743;-71
2022/07/14 23:43:54;;;;;;;0.60;0.60;;;20.00;83.40;;;;;;5033494;28;20648;-72
2022/07/14 23:46:21;;;;;;;0.93;0.60;;;20.00;83.40;;;;;;5034553;28;20209;-72
2022/07/14 23:48:48;;;;;;;0.52;0.52;;;20.00;83.60;;;;;;5037929;28;20217;-71
2022/07/14 23:51:16;;;;;;;0.80;0.70;;;20.00;83.80;;;;;;5038479;28;20503;-71
2022/07/14 23:53:43;;;;;;;1.95;0.70;;;19.90;83.80;;;;;;5038123;28;20229;-72
2022/07/14 23:56:10;;;;;;;0.68;0.68;;;19.90;84.00;;;;;;5037083;28;20200;-72
2022/07/14 23:58:38;;;;;;;0.63;0.63;;;19.90;84.10;;;;;;5036687;28;21907;-72
